Time;durP1;ratioP1;P1;durP2;ratioP2;P2;SDS_P1;SDS_P2;PMS_P1;PMS_P2;Temp;Humidity;BMP_temperature;BMP_pressure;BME280_temperature;BME280_humidity;BME280_pressure;Samples;Min_cycle;Max_cycle;Signal;HPM_P1;HPM_P2
2021/06/20 00:01:11;;;;;;;13.70;6.45;;;23.90;99.90;;;;;;5033469;28;20031;-78
2021/06/20 00:03:36;;;;;;;12.52;6.82;;;24.00;99.90;;;;;;5033160;28;20067;-78
2021/06/20 00:06:17;;;;;;;13.75;6.32;;;23.90;99.90;;;;;;5033405;28;20079;-78
2021/06/20 00:08:43;;;;;;;13.93;6.55;;;24.00;99.90;;;;;;5033137;28;20020;-78
2021/06/20 00:11:09;;;;;;;17.58;6.55;;;24.00;99.90;;;;;;5031760;28;20025;-78
2021/06/20 00:13:34;;;;;;;16.75;6.65;;;24.00;99.90;;;;;;5033582;28;20021;-78
2021/06/20 00:16:00;;;;;;;10.45;6.10;;;24.10;99.90;;;;;;5033024;28;20021;-78
2021/06/20 00:18:26;;;;;;;15.30;6.03;;;24.10;99.90;;;;;;5031711;28;20409;-78
2021/06/20 00:20:51;;;;;;;14.98;6.28;;;24.10;99.90;;;;;;5031719;28;20025;-78
2021/06/20 00:23:18;;;;;;;14.25;6.47;;;24.00;99.90;;;;;;5031670;28;20030;-78
2021/06/20 00:25:44;;;;;;;10.85;6.25;;;23.90;99.90;;;;;;5032932;28;20038;-78
2021/06/20 00:28:10;;;;;;;17.58;6.45;;;24.00;99.90;;;;;;5031607;28;20033;-78
2021/06/20 00:30:36;;;;;;;15.70;6.75;;;23.90;99.90;;;;;;5032918;28;20481;-78
2021/06/20 00:33:03;;;;;;;16.60;6.57;;;23.90;99.90;;;;;;5031677;28;20518;-78
2021/06/20 00:35:29;;;;;;;13.13;5.95;;;23.80;99.90;;;;;;5032653;28;20038;-78
2021/06/20 00:37:55;;;;;;;11.95;5.95;;;23.80;99.90;;;;;;5033469;28;20465;-78
2021/06/20 00:40:22;;;;;;;24.52;6.88;;;23.90;99.90;;;;;;5033141;28;20021;-78
2021/06/20 00:42:48;;;;;;;31.95;6.75;;;23.90;99.90;;;;;;5031581;28;20112;-78
2021/06/20 00:45:17;;;;;;;49.30;8.10;;;23.90;99.90;;;;;;5031518;28;20082;-77
2021/06/20 00:47:43;;;;;;;38.38;7.80;;;24.00;99.90;;;;;;5031415;28;20021;-77
2021/06/20 00:50:12;;;;;;;38.25;7.55;;;24.30;99.90;;;;;;5032762;28;20030;-78
2021/06/20 00:52:38;;;;;;;34.92;7.20;;;24.40;99.90;;;;;;5031469;28;20035;-78
2021/06/20 00:55:05;;;;;;;38.85;7.18;;;24.50;99.90;;;;;;5033518;28;20095;-78
2021/06/20 00:57:33;;;;;;;46.20;8.13;;;24.60;99.90;;;;;;5034685;28;20059;-76
2021/06/20 01:00:00;;;;;;;47.83;8.35;;;24.70;99.90;;;;;;5035061;28;20049;-78
2021/06/20 01:02:26;;;;;;;53.78;8.07;;;24.80;99.90;;;;;;5036294;28;20033;-78
2021/06/20 01:04:52;;;;;;;43.58;7.97;;;24.80;99.90;;;;;;5036244;28;20535;-77
2021/06/20 01:07:20;;;;;;;49.42;8.55;;;24.90;99.90;;;;;;5036097;28;20053;-78
2021/06/20 01:09:47;;;;;;;48.13;8.77;;;24.90;99.90;;;;;;5034899;28;20017;-78
2021/06/20 01:12:14;;;;;;;55.05;8.23;;;24.90;99.90;;;;;;5036146;28;20504;-77
2021/06/20 01:14:41;;;;;;;40.45;8.10;;;24.80;99.90;;;;;;5036049;28;20021;-77
2021/06/20 01:17:06;;;;;;;46.22;7.97;;;24.80;99.90;;;;;;5034759;28;20068;-78
2021/06/20 01:19:34;;;;;;;51.83;8.35;;;24.80;99.90;;;;;;5036245;28;20068;-78
2021/06/20 01:22:26;;;;;;;54.78;8.40;;;24.70;99.90;;;;;;5035928;28;20017;-78
2021/06/20 01:24:58;;;;;;;45.97;7.85;;;24.70;99.90;;;;;;5035882;28;20025;-78
2021/06/20 01:27:28;;;;;;;50.30;7.65;;;24.70;99.90;;;;;;5034504;28;20080;-78
2021/06/20 01:29:53;;;;;;;52.38;7.95;;;24.60;99.90;;;;;;5035792;28;20052;-78
2021/06/20 01:32:19;;;;;;;45.78;9.07;;;24.60;99.90;;;;;;5034469;28;20057;-78
2021/06/20 01:34:46;;;;;;;41.15;7.20;;;24.60;99.90;;;;;;5035726;28;20018;-78
2021/06/20 01:37:14;;;;;;;60.20;8.77;;;24.50;99.90;;;;;;5035446;28;20045;-77
2021/06/20 01:39:40;;;;;;;45.63;7.75;;;24.50;99.90;;;;;;5036156;28;20030;-78
2021/06/20 01:42:07;;;;;;;41.38;7.88;;;24.50;99.90;;;;;;5035565;28;20092;-78
2021/06/20 01:44:44;;;;;;;51.60;7.90;;;24.50;99.90;;;;;;5034227;28;20025;-78
2021/06/20 01:47:10;;;;;;;52.85;8.30;;;24.50;99.90;;;;;;5035707;28;20018;-78
2021/06/20 01:49:36;;;;;;;29.80;8.00;;;24.40;99.90;;;;;;5034139;28;20032;-78
2021/06/20 01:52:01;;;;;;;44.72;8.20;;;24.40;99.90;;;;;;5034128;28;20119;-78
2021/06/20 01:54:28;;;;;;;46.47;8.63;;;24.30;99.90;;;;;;5033996;28;20022;-78
2021/06/20 01:56:54;;;;;;;45.17;7.32;;;24.30;99.90;;;;;;5033996;28;20041;-78
2021/06/20 01:59:20;;;;;;;46.03;7.47;;;24.30;99.90;;;;;;5033999;28;20025;-78
2021/06/20 02:01:45;;;;;;;38.17;7.50;;;24.30;99.90;;;;;;5033906;28;20033;-78
2021/06/20 02:04:11;;;;;;;34.85;7.50;;;24.20;99.90;;;;;;5035459;28;20036;-78
2021/06/20 02:06:37;;;;;;;37.83;7.70;;;24.20;99.90;;;;;;5034789;28;20496;-77
2021/06/20 02:09:03;;;;;;;44.13;8.00;;;24.10;99.90;;;;;;5034959;28;20053;-78
2021/06/20 02:11:32;;;;;;;40.13;7.65;;;24.00;99.90;;;;;;5033768;28;20451;-78
2021/06/20 02:13:58;;;;;;;39.67;7.65;;;24.00;99.90;;;;;;5035206;28;20053;-78
2021/06/20 02:16:24;;;;;;;43.85;8.02;;;24.00;99.90;;;;;;5034897;28;20032;-78
2021/06/20 02:18:50;;;;;;;43.15;7.47;;;24.10;99.90;;;;;;5034846;28;20393;-78
2021/06/20 02:21:16;;;;;;;48.60;7.68;;;24.10;99.90;;;;;;5033535;28;20025;-77
2021/06/20 02:23:42;;;;;;;46.83;7.43;;;24.10;99.90;;;;;;5034834;28;20504;-78
2021/06/20 02:26:08;;;;;;;40.72;7.32;;;24.00;99.90;;;;;;5033350;28;20028;-78
2021/06/20 02:28:33;;;;;;;41.85;7.53;;;24.00;99.90;;;;;;5033458;28;20390;-77
2021/06/20 02:30:59;;;;;;;48.80;7.90;;;24.00;99.90;;;;;;5033358;28;20018;-78
2021/06/20 02:33:25;;;;;;;47.85;7.07;;;23.90;99.90;;;;;;5033596;28;20025;-77
2021/06/20 02:35:50;;;;;;;40.47;7.25;;;23.90;99.90;;;;;;5034288;28;20075;-77
2021/06/20 02:38:16;;;;;;;39.35;7.82;;;23.90;99.90;;;;;;5033201;28;20064;-78
2021/06/20 02:40:42;;;;;;;43.92;7.38;;;23.90;99.90;;;;;;5033131;28;20032;-77
2021/06/20 02:43:08;;;;;;;41.00;7.05;;;23.90;99.90;;;;;;5033171;28;20033;-78
2021/06/20 02:45:33;;;;;;;40.33;6.97;;;24.00;99.90;;;;;;5034342;28;20030;-78
2021/06/20 02:47:59;;;;;;;42.20;7.47;;;23.90;99.90;;;;;;5032929;28;20556;-78
2021/06/20 02:50:25;;;;;;;45.15;6.65;;;24.00;99.90;;;;;;5034296;28;20075;-79
2021/06/20 02:52:50;;;;;;;34.55;6.93;;;23.90;99.90;;;;;;5034257;28;20021;-78
2021/06/20 02:55:16;;;;;;;39.30;7.07;;;23.80;99.90;;;;;;5034431;28;20060;-79
2021/06/20 02:57:42;;;;;;;39.53;7.95;;;23.80;99.90;;;;;;5034103;28;20029;-78
2021/06/20 03:00:09;;;;;;;37.95;7.38;;;23.80;99.90;;;;;;5032856;28;20393;-78
2021/06/20 03:02:35;;;;;;;35.15;6.93;;;23.80;99.90;;;;;;5034034;28;20432;-78
2021/06/20 03:05:01;;;;;;;35.08;6.25;;;23.80;99.90;;;;;;5034004;28;20028;-78
2021/06/20 03:07:27;;;;;;;37.88;7.90;;;23.80;99.90;;;;;;5032624;28;20040;-79
2021/06/20 03:09:53;;;;;;;43.85;7.30;;;23.80;99.90;;;;;;5032679;28;20440;-78
2021/06/20 03:12:19;;;;;;;42.17;6.47;;;23.70;99.90;;;;;;5032689;28;20477;-78
2021/06/20 03:14:46;;;;;;;36.97;6.85;;;23.60;99.90;;;;;;5034243;28;20021;-78
2021/06/20 03:17:14;;;;;;;26.77;6.65;;;23.60;99.90;;;;;;5034379;28;20351;-78
2021/06/20 03:19:41;;;;;;;33.25;7.15;;;23.60;99.90;;;;;;5031759;28;20445;-78
2021/06/20 03:22:07;;;;;;;38.30;7.45;;;23.60;99.90;;;;;;5033738;28;20040;-78
2021/06/20 03:24:37;;;;;;;26.70;6.70;;;23.60;99.90;;;;;;5033670;28;20057;-79
2021/06/20 03:27:04;;;;;;;33.50;7.20;;;23.60;99.90;;;;;;5032412;28;20021;-78
2021/06/20 03:29:29;;;;;;;42.25;6.80;;;23.50;99.90;;;;;;5033578;28;20037;-78
2021/06/20 03:31:55;;;;;;;41.25;7.32;;;23.50;99.90;;;;;;5032276;28;20018;-78
2021/06/20 03:34:21;;;;;;;35.08;7.10;;;23.50;99.90;;;;;;5033446;28;20025;-78
2021/06/20 03:36:47;;;;;;;36.92;6.88;;;23.50;99.90;;;;;;5033256;28;20497;-78
2021/06/20 03:39:13;;;;;;;42.92;7.15;;;23.60;99.90;;;;;;5032203;28;20030;-78
2021/06/20 03:41:40;;;;;;;37.08;7.65;;;23.60;99.90;;;;;;5032128;28;20030;-78
2021/06/20 03:44:07;;;;;;;29.77;6.72;;;23.50;99.90;;;;;;5033686;28;20432;-78
2021/06/20 03:46:36;;;;;;;26.48;6.32;;;23.50;99.90;;;;;;5032011;28;20395;-79
2021/06/20 03:49:03;;;;;;;44.50;6.72;;;23.50;99.90;;;;;;5032043;28;20053;-78
2021/06/20 03:51:30;;;;;;;34.20;7.07;;;23.50;99.90;;;;;;5033246;28;20022;-78
2021/06/20 03:53:56;;;;;;;30.02;6.50;;;23.50;99.90;;;;;;5033278;28;20092;-78
2021/06/20 03:56:21;;;;;;;31.55;6.65;;;23.50;99.90;;;;;;5032038;28;20116;-78
2021/06/20 03:58:47;;;;;;;36.42;7.00;;;23.50;99.90;;;;;;5033455;28;20030;-78
2021/06/20 04:01:13;;;;;;;29.13;6.82;;;23.60;99.90;;;;;;5031896;28;20025;-79
2021/06/20 04:03:38;;;;;;;27.05;5.88;;;23.60;99.90;;;;;;5033162;28;20032;-78
2021/06/20 04:06:04;;;;;;;32.13;6.15;;;23.50;99.90;;;;;;5033151;28;20076;-78
2021/06/20 04:08:30;;;;;;;33.95;6.13;;;23.50;99.90;;;;;;5031815;28;20549;-78
2021/06/20 04:10:56;;;;;;;26.02;5.53;;;23.50;99.90;;;;;;5031807;28;20017;-78
2021/06/20 04:13:22;;;;;;;29.88;6.43;;;23.50;99.90;;;;;;5033070;28;20017;-78
2021/06/20 04:15:47;;;;;;;39.08;6.40;;;23.60;99.90;;;;;;5033643;28;20025;-78
2021/06/20 04:18:13;;;;;;;29.42;5.85;;;23.50;99.90;;;;;;5031737;28;20026;-78
2021/06/20 04:20:39;;;;;;;26.95;6.38;;;23.60;99.90;;;;;;5033061;28;20029;-78
2021/06/20 04:23:05;;;;;;;33.75;5.78;;;23.60;99.90;;;;;;5033573;28;20060;-78
2021/06/20 04:25:31;;;;;;;31.20;6.47;;;23.50;99.90;;;;;;5031706;28;20021;-78
2021/06/20 04:27:57;;;;;;;23.45;5.57;;;23.40;99.90;;;;;;5031592;28;20473;-79
2021/06/20 04:30:24;;;;;;;27.05;5.72;;;23.30;99.90;;;;;;5032791;28;20541;-78
2021/06/20 04:32:51;;;;;;;21.25;4.72;;;23.10;99.90;;;;;;5036852;28;20025;-78
2021/06/20 04:35:19;;;;;;;32.22;5.20;;;23.20;99.90;;;;;;5036520;28;20017;-78
2021/06/20 04:37:45;;;;;;;17.08;4.22;;;23.20;99.90;;;;;;5036797;28;20123;-78
2021/06/20 04:40:23;;;;;;;21.92;4.40;;;23.10;99.90;;;;;;5036732;28;20033;-78
2021/06/20 04:42:58;;;;;;;19.80;4.45;;;23.10;99.90;;;;;;5037218;28;20027;-78
2021/06/20 04:45:24;;;;;;;19.33;4.28;;;23.20;99.90;;;;;;5035367;28;20480;-78
2021/06/20 04:47:50;;;;;;;18.42;4.43;;;23.30;99.90;;;;;;5036543;28;20047;-78
2021/06/20 04:50:16;;;;;;;15.55;4.32;;;23.30;99.90;;;;;;5036717;28;20096;-78
2021/06/20 04:52:43;;;;;;;17.10;3.53;;;23.40;99.90;;;;;;5035240;28;20109;-78
2021/06/20 04:55:10;;;;;;;20.98;4.00;;;23.40;99.90;;;;;;5035234;28;20392;-78
2021/06/20 04:57:36;;;;;;;17.15;3.95;;;23.50;99.90;;;;;;5035110;28;20042;-78
2021/06/20 05:00:04;;;;;;;15.95;4.20;;;23.50;99.90;;;;;;5036382;28;20049;-78
2021/06/20 05:02:31;;;;;;;21.80;3.72;;;23.40;99.90;;;;;;5035060;28;20520;-78
2021/06/20 05:04:57;;;;;;;19.20;3.85;;;23.40;99.90;;;;;;5036285;28;20079;-79
2021/06/20 05:07:22;;;;;;;15.02;3.10;;;23.50;99.90;;;;;;5034877;28;20025;-78
2021/06/20 05:09:49;;;;;;;16.00;3.83;;;23.50;99.90;;;;;;5036236;28;20026;-78
2021/06/20 05:12:15;;;;;;;21.10;3.50;;;23.50;99.90;;;;;;5036151;28;20032;-78
2021/06/20 05:14:43;;;;;;;22.70;4.43;;;23.50;99.90;;;;;;5036051;28;20021;-78
2021/06/20 05:17:10;;;;;;;16.52;3.65;;;23.50;99.90;;;;;;5034774;28;20504;-78
2021/06/20 05:19:36;;;;;;;12.55;3.38;;;23.50;99.90;;;;;;5036028;28;20029;-78
2021/06/20 05:22:02;;;;;;;19.50;4.05;;;23.50;99.90;;;;;;5034684;28;20036;-79
2021/06/20 05:24:27;;;;;;;13.05;2.72;;;23.50;99.90;;;;;;5034683;28;20053;-78
2021/06/20 05:26:53;;;;;;;16.48;2.78;;;23.50;99.90;;;;;;5036071;28;20074;-78
2021/06/20 05:29:19;;;;;;;13.25;3.40;;;23.30;99.90;;;;;;5036092;28;20026;-78
2021/06/20 05:31:45;;;;;;;17.00;3.45;;;23.20;99.90;;;;;;5035746;28;20025;-78
2021/06/20 05:34:10;;;;;;;17.15;3.90;;;23.30;99.90;;;;;;5035701;28;20501;-78
2021/06/20 05:36:36;;;;;;;18.27;3.60;;;23.30;99.90;;;;;;5035616;28;20409;-78
2021/06/20 05:39:02;;;;;;;15.75;4.07;;;23.20;99.90;;;;;;5034363;28;20033;-78
2021/06/20 05:41:28;;;;;;;18.27;3.60;;;23.20;99.90;;;;;;5035406;28;20032;-78
2021/06/20 05:43:54;;;;;;;17.08;4.10;;;23.20;99.90;;;;;;5035182;28;20108;-78
2021/06/20 05:46:22;;;;;;;14.82;3.50;;;23.20;99.90;;;;;;5034122;28;20033;-78
2021/06/20 05:48:48;;;;;;;14.00;3.90;;;23.30;99.90;;;;;;5035465;28;20105;-78
2021/06/20 05:51:15;;;;;;;10.98;3.10;;;23.40;99.90;;;;;;5034154;28;20031;-78
2021/06/20 05:53:40;;;;;;;17.73;3.58;;;23.50;99.90;;;;;;5034067;28;20527;-78
2021/06/20 05:56:06;;;;;;;15.50;3.17;;;23.60;99.90;;;;;;5034035;28;20033;-78
2021/06/20 05:58:33;;;;;;;14.88;3.58;;;23.50;99.90;;;;;;5033956;28;20030;-78
2021/06/20 06:00:58;;;;;;;23.88;3.08;;;23.50;99.90;;;;;;5033913;28;20036;-79
2021/06/20 06:03:24;;;;;;;13.95;2.90;;;23.50;99.90;;;;;;5033897;28;20033;-79
2021/06/20 06:05:50;;;;;;;12.65;3.75;;;23.60;99.90;;;;;;5035479;28;20029;-79
2021/06/20 06:08:15;;;;;;;15.75;3.25;;;23.60;99.90;;;;;;5035152;28;20022;-79
2021/06/20 06:10:41;;;;;;;23.23;3.20;;;23.70;99.90;;;;;;5035147;28;20092;-79
2021/06/20 06:13:07;;;;;;;11.35;2.88;;;23.80;99.90;;;;;;5035106;28;20028;-79
2021/06/20 06:15:32;;;;;;;18.05;3.55;;;23.70;99.90;;;;;;5033819;28;20032;-78
2021/06/20 06:17:59;;;;;;;18.33;3.47;;;23.70;99.90;;;;;;5034903;28;20390;-79
2021/06/20 06:20:25;;;;;;;15.75;2.88;;;23.90;99.90;;;;;;5033637;28;20087;-79
2021/06/20 06:22:52;;;;;;;11.02;3.10;;;24.10;99.90;;;;;;5033565;28;20025;-79
2021/06/20 06:25:17;;;;;;;15.45;2.78;;;24.10;99.90;;;;;;5034808;28;20025;-78
2021/06/20 06:27:44;;;;;;;15.75;3.00;;;24.10;99.90;;;;;;5034707;28;20029;-79
2021/06/20 06:30:11;;;;;;;10.05;2.83;;;24.20;99.90;;;;;;5033365;28;20100;-79
2021/06/20 06:32:38;;;;;;;18.05;2.92;;;24.30;99.90;;;;;;5033369;28;20032;-79
2021/06/20 06:35:04;;;;;;;15.48;3.22;;;24.30;99.90;;;;;;5016847;28;20037;-79
2021/06/20 06:37:33;;;;;;;13.30;2.78;;;24.10;99.90;;;;;;5034301;28;20095;-79
2021/06/20 06:39:58;;;;;;;16.05;2.92;;;24.00;99.90;;;;;;5034506;28;20087;-79
2021/06/20 06:42:29;;;;;;;13.65;2.30;;;24.10;99.90;;;;;;5034501;28;20033;-79
2021/06/20 06:44:58;;;;;;;11.57;3.00;;;24.30;99.90;;;;;;5033175;28;20028;-79
2021/06/20 06:47:25;;;;;;;11.18;2.95;;;24.20;99.90;;;;;;5034291;28;20026;-79
2021/06/20 06:49:57;;;;;;;11.60;2.63;;;24.20;99.90;;;;;;5033046;28;20029;-79
2021/06/20 06:52:23;;;;;;;13.23;3.30;;;24.10;99.90;;;;;;5033028;28;20431;-79
2021/06/20 06:54:52;;;;;;;10.45;2.80;;;24.10;99.90;;;;;;5032731;28;20025;-79
2021/06/20 06:57:27;;;;;;;13.10;2.75;;;24.10;99.90;;;;;;5016832;28;20611;-79
2021/06/20 06:59:54;;;;;;;12.73;2.65;;;24.20;99.90;;;;;;5034452;28;20477;-79
2021/06/20 07:02:23;;;;;;;15.98;2.63;;;24.20;99.90;;;;;;5032806;28;20025;-79
2021/06/20 07:04:49;;;;;;;13.65;3.10;;;24.20;99.90;;;;;;5032794;28;20501;-79
2021/06/20 07:07:15;;;;;;;13.93;3.00;;;24.40;99.90;;;;;;5033993;28;20026;-79
2021/06/20 07:09:41;;;;;;;13.20;2.95;;;24.50;99.90;;;;;;5032714;28;20024;-79
2021/06/20 07:12:07;;;;;;;10.43;2.92;;;24.70;99.90;;;;;;5033928;28;20481;-79
2021/06/20 07:14:36;;;;;;;19.38;3.67;;;24.80;99.90;;;;;;5032572;28;20132;-79
2021/06/20 07:17:04;;;;;;;13.30;2.80;;;24.90;99.90;;;;;;5034362;28;20022;-79
2021/06/20 07:19:29;;;;;;;12.35;2.92;;;24.90;99.90;;;;;;5033794;28;20030;-79
2021/06/20 07:21:55;;;;;;;14.20;3.35;;;24.80;99.90;;;;;;5034267;28;20432;-79
2021/06/20 07:24:21;;;;;;;11.32;3.30;;;24.90;99.90;;;;;;5032401;28;20025;-79
2021/06/20 07:26:47;;;;;;;10.05;2.53;;;24.90;99.90;;;;;;5033592;28;20105;-79
2021/06/20 07:29:12;;;;;;;13.88;2.97;;;24.90;99.90;;;;;;5032271;28;20022;-79
2021/06/20 07:31:38;;;;;;;13.30;2.67;;;25.00;99.90;;;;;;5032270;28;20026;-79
2021/06/20 07:34:04;;;;;;;17.65;2.72;;;25.00;99.90;;;;;;5033501;28;20022;-79
2021/06/20 07:36:29;;;;;;;14.38;2.67;;;25.10;99.90;;;;;;5032087;28;20045;-79
2021/06/20 07:38:55;;;;;;;11.85;2.70;;;25.20;99.90;;;;;;5033477;28;20389;-79
2021/06/20 07:41:21;;;;;;;15.35;3.10;;;25.30;99.90;;;;;;5033443;28;20071;-79
2021/06/20 07:43:47;;;;;;;15.18;3.00;;;25.30;99.90;;;;;;5032198;28;20108;-79
2021/06/20 07:46:12;;;;;;;17.13;3.28;;;25.10;99.90;;;;;;5033368;28;20421;-79
2021/06/20 07:48:38;;;;;;;10.85;2.70;;;25.10;99.90;;;;;;5033315;28;20189;-79
2021/06/20 07:51:04;;;;;;;12.75;3.03;;;25.20;99.90;;;;;;5032134;28;20024;-79
2021/06/20 07:53:30;;;;;;;17.52;2.58;;;25.20;99.90;;;;;;5032112;28;20021;-79
2021/06/20 07:55:55;;;;;;;15.02;2.70;;;25.30;99.90;;;;;;5032007;28;20028;-79
2021/06/20 07:58:21;;;;;;;14.68;2.78;;;25.40;99.90;;;;;;5033224;28;20067;-79
2021/06/20 08:00:47;;;;;;;21.95;3.00;;;25.30;99.90;;;;;;5032011;28;20026;-80
2021/06/20 08:03:12;;;;;;;13.98;2.90;;;25.20;99.90;;;;;;5031958;28;20029;-80
2021/06/20 08:05:38;;;;;;;11.13;2.30;;;25.20;99.90;;;;;;5035740;28;20087;-80
2021/06/20 08:08:04;;;;;;;12.05;2.70;;;25.40;99.90;;;;;;5038455;28;20036;-80
2021/06/20 08:10:30;;;;;;;11.90;2.92;;;25.40;99.90;;;;;;5039752;28;20072;-80
2021/06/20 08:12:55;;;;;;;13.40;3.00;;;25.40;99.90;;;;;;5038413;28;20181;-80
2021/06/20 08:15:21;;;;;;;17.08;3.13;;;25.30;99.90;;;;;;5038459;28;20388;-80
2021/06/20 08:17:47;;;;;;;16.17;3.00;;;25.30;99.90;;;;;;5039722;28;20358;-79
2021/06/20 08:20:14;;;;;;;16.75;3.05;;;25.10;99.90;;;;;;5039657;28;20025;-79
2021/06/20 08:22:41;;;;;;;15.65;3.50;;;25.10;99.90;;;;;;5039648;28;20060;-80
2021/06/20 08:25:08;;;;;;;15.80;2.80;;;25.10;99.90;;;;;;5038315;28;20508;-80
2021/06/20 08:27:34;;;;;;;14.82;2.97;;;25.10;99.90;;;;;;5040116;28;20105;-80
2021/06/20 08:30:00;;;;;;;12.52;2.75;;;25.30;99.90;;;;;;5038367;28;20041;-80
2021/06/20 08:32:29;;;;;;;11.05;2.13;;;25.50;99.90;;;;;;5039556;28;20096;-80
2021/06/20 08:34:55;;;;;;;13.32;2.83;;;25.50;99.90;;;;;;5038267;28;20030;-80
2021/06/20 08:37:21;;;;;;;9.32;2.80;;;25.50;99.90;;;;;;5039344;28;20037;-80
2021/06/20 08:39:47;;;;;;;15.20;2.58;;;25.40;99.90;;;;;;5038477;28;20033;-80
2021/06/20 08:42:13;;;;;;;12.00;2.80;;;25.50;99.90;;;;;;5039488;28;20440;-80
2021/06/20 08:44:38;;;;;;;10.07;2.50;;;25.70;99.90;;;;;;5039504;28;20033;-80
2021/06/20 08:47:05;;;;;;;10.90;2.80;;;25.60;99.90;;;;;;5039585;28;20080;-80
2021/06/20 08:49:33;;;;;;;9.00;2.15;;;25.50;99.90;;;;;;5038075;28;20079;-80
2021/06/20 08:52:00;;;;;;;17.38;2.40;;;25.40;99.90;;;;;;5038095;28;20104;-80
2021/06/20 08:54:27;;;;;;;11.38;2.55;;;25.40;99.90;;;;;;5039480;28;20105;-80
2021/06/20 08:56:53;;;;;;;11.93;2.72;;;25.30;99.90;;;;;;5038088;28;20501;-80
2021/06/20 08:59:20;;;;;;;12.25;2.67;;;25.40;99.90;;;;;;5038078;28;20120;-80
2021/06/20 09:01:47;;;;;;;7.55;2.35;;;25.40;99.90;;;;;;5039541;28;20075;-80
2021/06/20 09:04:31;;;;;;;8.98;2.50;;;25.50;99.90;;;;;;5037974;28;20082;-79
2021/06/20 09:07:00;;;;;;;;;;;25.40;99.90;;;;;;5039634;28;20131;-80
2021/06/20 09:09:34;;;;;;;9.70;2.47;;;25.50;99.90;;;;;;5039279;28;19951;-80
2021/06/20 09:12:11;;;;;;;13.35;2.42;;;25.40;99.90;;;;;;5037988;28;20033;-80
2021/06/20 09:14:49;;;;;;;12.35;2.47;;;25.50;99.90;;;;;;5037944;28;20454;-80
2021/06/20 09:17:28;;;;;;;16.15;2.45;;;25.60;99.90;;;;;;5037157;28;20048;-80
2021/06/20 09:20:02;;;;;;;13.32;2.30;;;25.70;99.90;;;;;;5034594;28;20037;-80
2021/06/20 09:22:28;;;;;;;10.65;2.38;;;25.50;99.90;;;;;;5035842;28;20026;-79
2021/06/20 09:25:03;;;;;;;9.63;2.15;;;25.50;99.90;;;;;;5034637;28;20033;-80
2021/06/20 09:27:29;;;;;;;11.02;2.42;;;25.70;99.90;;;;;;5034608;28;20029;-80
2021/06/20 09:30:05;;;;;;;9.55;2.38;;;26.00;99.90;;;;;;5034621;28;20076;-80
2021/06/20 09:32:32;;;;;;;11.10;2.28;;;26.00;99.90;;;;;;5034576;28;20117;-80
2021/06/20 09:35:00;;;;;;;9.02;2.50;;;26.10;99.90;;;;;;5035711;28;20022;-80
2021/06/20 09:37:27;;;;;;;6.93;2.08;;;26.40;99.90;;;;;;5035605;28;20049;-80
2021/06/20 09:39:53;;;;;;;9.15;2.03;;;26.70;99.90;;;;;;5035807;28;20504;-80
2021/06/20 09:42:19;;;;;;;8.52;1.88;;;26.90;99.90;;;;;;5035652;28;20029;-80
2021/06/20 09:44:48;;;;;;;8.07;2.17;;;26.80;99.90;;;;;;5034337;28;20532;-80
2021/06/20 09:47:16;;;;;;;8.82;2.00;;;27.00;99.90;;;;;;5035506;28;20018;-80
2021/06/20 09:49:43;;;;;;;8.32;2.17;;;26.90;99.90;;;;;;5035567;28;20026;-80
2021/06/20 09:52:10;;;;;;;8.45;2.13;;;26.80;99.90;;;;;;5035787;28;20469;-80
2021/06/20 09:54:44;;;;;;;10.88;2.47;;;26.70;99.90;;;;;;5034189;28;20425;-80
2021/06/20 09:57:16;;;;;;;9.80;2.33;;;26.60;99.90;;;;;;5035485;28;20036;-80
2021/06/20 10:00:03;;;;;;;10.93;2.83;;;26.50;99.90;;;;;;5034152;28;20397;-80
2021/06/20 10:02:32;;;;;;;15.77;2.60;;;26.90;99.90;;;;;;5034101;28;20107;-80
2021/06/20 10:04:58;;;;;;;8.98;2.15;;;27.30;99.90;;;;;;5035284;28;20477;-80
2021/06/20 10:07:29;;;;;;;12.98;2.33;;;27.00;99.90;;;;;;5035182;28;20495;-80
2021/06/20 10:09:59;;;;;;;9.00;2.25;;;27.20;99.90;;;;;;5035436;28;20487;-80
2021/06/20 10:12:28;;;;;;;10.50;2.75;;;27.30;99.90;;;;;;5035077;28;20021;-80
2021/06/20 10:14:56;;;;;;;9.32;2.80;;;27.50;99.90;;;;;;5035047;28;20018;-80
2021/06/20 10:17:40;;;;;;;10.48;2.40;;;27.60;99.90;;;;;;5034999;28;20380;-80
2021/06/20 10:20:09;;;;;;;11.02;2.55;;;27.50;99.90;;;;;;5033753;28;20071;-80
2021/06/20 10:22:37;;;;;;;8.25;2.22;;;27.30;99.90;;;;;;5035354;28;20030;-80
2021/06/20 10:25:06;;;;;;;12.23;1.90;;;27.30;99.90;;;;;;5034836;28;20025;-80
2021/06/20 10:27:38;;;;;;;8.40;2.03;;;27.70;99.90;;;;;;5033204;28;20056;-80
2021/06/20 10:30:17;;;;;;;7.63;1.88;;;27.80;99.90;;;;;;5034662;28;20029;-80
2021/06/20 10:32:47;;;;;;;8.32;2.45;;;28.00;99.90;;;;;;5035048;28;20025;-80
2021/06/20 10:35:20;;;;;;;9.55;1.83;;;27.80;99.90;;;;;;5034301;28;20026;-80
2021/06/20 10:37:48;;;;;;;10.88;2.53;;;28.00;99.90;;;;;;5033446;28;20033;-80
2021/06/20 10:40:29;;;;;;;8.32;2.05;;;28.00;99.90;;;;;;5033326;28;20117;-80
2021/06/20 10:42:57;;;;;;;8.32;2.05;;;28.20;99.90;;;;;;5034861;28;20481;-80
2021/06/20 10:45:37;;;;;;;9.30;1.98;;;28.50;99.90;;;;;;5033255;28;20400;-80
2021/06/20 10:48:18;;;;;;;10.65;2.28;;;28.80;99.90;;;;;;5034337;28;20037;-80
2021/06/20 10:50:56;;;;;;;7.57;1.90;;;28.90;99.90;;;;;;5033167;28;20072;-80
2021/06/20 10:53:23;;;;;;;8.68;2.15;;;28.90;99.90;;;;;;5033081;28;20021;-80
2021/06/20 10:55:54;;;;;;;9.82;2.47;;;29.20;99.90;;;;;;5034282;28;20029;-81
2021/06/20 10:58:21;;;;;;;10.02;2.08;;;29.30;99.90;;;;;;5034565;28;20029;-80
2021/06/20 11:00:48;;;;;;;9.38;2.13;;;28.80;99.90;;;;;;5032957;28;20032;-80
2021/06/20 11:03:18;;;;;;;11.32;2.08;;;28.90;99.90;;;;;;5034189;28;20029;-80
2021/06/20 11:06:13;;;;;;;7.68;1.67;;;28.70;99.90;;;;;;5033239;28;20032;-80
2021/06/20 11:09:02;;;;;;;5.40;1.73;;;29.10;99.90;;;;;;5032709;28;20033;-80
2021/06/20 11:11:36;;;;;;;11.45;1.95;;;29.50;99.90;;;;;;5028878;28;20030;-80
2021/06/20 11:14:04;;;;;;;15.65;2.22;;;29.20;99.90;;;;;;5034297;28;20071;-80
2021/06/20 11:16:45;;;;;;;9.82;2.13;;;29.20;99.90;;;;;;5033889;28;20033;-80
2021/06/20 11:19:21;;;;;;;12.35;2.53;;;30.00;99.90;;;;;;5032656;28;20496;-80
2021/06/20 11:21:57;;;;;;;11.23;2.42;;;30.00;99.70;;;;;;5032582;28;20025;-81
2021/06/20 11:24:27;;;;;;;11.30;2.40;;;30.10;99.80;;;;;;5033835;28;20427;-80
2021/06/20 11:27:03;;;;;;;15.88;3.00;;;30.00;99.90;;;;;;5032455;28;20022;-80
2021/06/20 11:29:55;;;;;;;16.30;2.92;;;29.80;99.60;;;;;;5032448;28;20033;-81
2021/06/20 11:32:26;;;;;;;10.57;2.47;;;30.00;98.40;;;;;;5033672;28;20032;-80
2021/06/20 11:35:16;;;;;;;11.95;2.50;;;30.10;98.70;;;;;;5033562;28;20017;-80
2021/06/20 11:37:46;;;;;;;23.00;3.22;;;30.00;98.50;;;;;;5033901;28;20033;-81
2021/06/20 11:40:18;;;;;;;15.77;3.00;;;30.50;96.90;;;;;;5032734;28;20063;-80
2021/06/20 11:42:57;;;;;;;19.92;3.10;;;30.70;96.60;;;;;;5032282;28;20083;-80
2021/06/20 11:45:29;;;;;;;13.25;2.55;;;30.40;95.90;;;;;;5033544;28;20029;-80
2021/06/20 11:47:57;;;;;;;28.48;3.35;;;30.50;97.90;;;;;;5032148;28;20029;-80
2021/06/20 11:50:28;;;;;;;23.33;3.40;;;30.40;96.40;;;;;;5032179;28;20032;-80
2021/06/20 11:53:01;;;;;;;18.65;3.45;;;30.00;96.10;;;;;;5033442;28;20025;-81
2021/06/20 11:55:32;;;;;;;18.20;2.95;;;29.80;97.10;;;;;;5032125;28;20480;-80
2021/06/20 11:58:06;;;;;;;17.83;3.75;;;30.00;96.60;;;;;;5033624;28;20469;-80
2021/06/20 12:00:33;;;;;;;19.38;3.28;;;30.10;96.10;;;;;;5033348;28;20136;-80
2021/06/20 12:03:05;;;;;;;19.83;3.03;;;30.30;96.50;;;;;;5032004;28;20040;-80
2021/06/20 12:05:33;;;;;;;18.30;3.25;;;30.20;95.90;;;;;;5031962;28;20059;-80
2021/06/20 12:08:06;;;;;;;19.80;3.90;;;30.00;96.40;;;;;;5031942;28;20026;-81
2021/06/20 12:10:33;;;;;;;24.83;3.63;;;30.00;96.60;;;;;;5031953;28;20045;-80
2021/06/20 12:13:05;;;;;;;23.80;3.33;;;30.40;97.00;;;;;;5033172;28;20026;-80
2021/06/20 12:15:32;;;;;;;20.80;3.42;;;30.70;95.30;;;;;;5033428;28;20024;-80
2021/06/20 12:18:02;;;;;;;25.00;3.50;;;30.80;95.00;;;;;;5031856;28;20061;-80
2021/06/20 12:20:52;;;;;;;19.35;3.33;;;30.70;96.00;;;;;;5031885;28;20030;-80
2021/06/20 12:23:30;;;;;;;23.30;3.40;;;30.50;95.40;;;;;;5032962;28;20108;-81
2021/06/20 12:25:56;;;;;;;26.60;4.22;;;30.30;95.20;;;;;;5032998;28;20071;-80
2021/06/20 12:28:23;;;;;;;22.85;3.75;;;30.60;96.40;;;;;;5033156;28;20021;-81
2021/06/20 12:30:50;;;;;;;19.35;3.60;;;31.40;94.70;;;;;;5033036;28;20021;-81
2021/06/20 12:33:18;;;;;;;21.00;3.47;;;31.50;94.40;;;;;;5031725;28;20021;-80
2021/06/20 12:35:46;;;;;;;25.25;3.70;;;32.10;94.00;;;;;;5032717;28;20073;-80
2021/06/20 12:38:24;;;;;;;32.50;4.32;;;32.20;93.10;;;;;;5033231;28;20021;-80
2021/06/20 12:40:50;;;;;;;26.05;4.00;;;32.50;92.30;;;;;;5031638;28;20034;-81
2021/06/20 12:43:21;;;;;;;19.08;3.58;;;32.80;91.50;;;;;;5033143;28;20100;-81